Louisburg, KS

2:42 AM CST on February 06, 2016 (GMT -0600)
Powell Observatory, Lewis Young Park | | Change Station
CLOSE
Current Station
Personal Weather Station
Location: Louisburg, KS
Elevation: 1073 ft
Nearby Weather Stations

Elev 1073 ft 38.65 °N, 94.70 °W | Updated 7 seconds ago

Clear
Clear
30.4 °F
Feels Like 30 °F
N
1.3
Wind Variable Wind from SSE
Gusts 3.4 mph

Today
High -- | Low -- °F
--% Chance of Precip.
Yesterday
High -- | Low -- °F
Precip. -- in
Pressure 30.26 in
Visibility 10.0 miles
Clouds Clear
Windchill 30 °F
Dew Point 20 °F
Humidity 66%
Rainfall 0.00 in
Snow Depth Not available.
7:20 AM 5:45 PM
Waning Crescent, 6% visible
METAR KOJC 060753Z AUTO 16005KT 10SM CLR 01/M04 A3024 RMK AO2 SLP246 T00061044
Pressure 30.26 in
Visibility 10.0 miles
Clouds Clear
Windchill 30 °F
Dew Point 20 °F
Humidity 66%
Rainfall 0.00 in
Snow Depth Not available.
7:20 AM 5:45 PM
Waning Crescent, 6% visible
METAR KOJC 060753Z AUTO 16005KT 10SM CLR 01/M04 A3024 RMK AO2 SLP246 T00061044

10-Day Weather Forecast

Almanac

Astronomy

Feb. 06, 2016 Rise Set
Actual Time
Civil Twilight
Nautical Twilight
Astronomical Twilight
Moon
Length of Visible Light
Length of Day
Tomorrow will be .
, % of the Moon is Illuminated

Today's Extremes

State Highs State Lows

Community

WunderPhotos

Upload Photos

1,890,933 photos uploaded!

WunderBlog® & News

Nearby

Air Quality

  Air Quality AQ Index Pollutant
Not available.

Snow Depth

Station Depth Elevation

Earthquake Activity

City Distance Mag. Time & Date
Minimum magnitude displayed is 2.5.

Coastal Water Temperatures

Place Temperature

Stations

Nearby Weather Stations

Station Location Temp. Windchill Dew Point Humidity Wind Precip. Elev Updated Type
                   

Watches & Warnings

There are currently no watches in effect.